Time;durP1;ratioP1;P1;durP2;ratioP2;P2;SDS_P1;SDS_P2;PMS_P1;PMS_P2;Temp;Humidity;BMP_temperature;BMP_pressure;BME280_temperature;BME280_humidity;BME280_pressure;Samples;Min_cycle;Max_cycle;Signal;HPM_P1;HPM_P2
2022/03/21 00:01:06;;;;;;;;;;;0.80;76.10;;;-0.65;72.14;98283.78;4004219;34;20594;-85
2022/03/21 00:03:35;;;;;;;;;;;0.80;76.00;;;-0.63;71.81;98279.09;4007973;34;19905;-85
2022/03/21 00:06:03;;;;;;;;;;;0.70;76.00;;;-0.64;71.78;98290.84;4008079;34;20229;-85
2022/03/21 00:08:32;;;;;;;;;;;0.80;75.90;;;-0.65;72.16;98289.16;4008492;34;20240;-85
2022/03/21 00:11:01;;;;;;;;;;;0.80;76.00;;;-0.64;72.03;98298.91;4009744;34;19916;-84
2022/03/21 00:13:29;;;;;;;;;;;0.70;76.00;;;-0.66;71.86;98287.44;4008260;34;20207;-84
2022/03/21 00:15:58;;;;;;;;;;;0.80;75.90;;;-0.65;71.68;98291.84;4029976;34;20135;-85
2022/03/21 00:18:29;;;;;;;;;;;0.70;75.90;;;-0.65;72.21;98285.63;3986658;34;19905;-85
2022/03/21 00:20:58;;;;;;;;;;;0.70;76.00;;;-0.66;71.84;98290.13;4008606;34;19912;-85
2022/03/21 00:23:26;;;;;;;;;;;0.70;76.00;;;-0.66;71.92;98284.75;4005891;34;20213;-85
2022/03/21 00:25:55;;;;;;;;;;;0.70;76.00;;;-0.66;72.09;98287.44;3997894;34;20228;-85
2022/03/21 00:28:24;;;;;;;;;;;0.70;76.10;;;-0.66;71.89;98294.69;3998233;34;19935;-85
2022/03/21 00:30:52;;;;;;;;;;;0.70;76.10;;;-0.68;71.73;98283.22;3978442;34;20219;-85
2022/03/21 00:33:21;;;;;;;;;;;0.70;76.00;;;-0.69;72.21;98284.22;4000203;34;20197;-85
2022/03/21 00:35:51;;;;;;;;;;;0.70;76.10;;;-0.67;71.89;98296.50;4021901;34;20238;-85
2022/03/21 00:38:20;;;;;;;;;;;0.70;75.80;;;-0.67;71.88;98284.91;3999547;34;20471;-84
2022/03/21 00:40:49;;;;;;;;;;;0.70;76.00;;;-0.68;72.06;98285.91;3998832;34;19905;-85
2022/03/21 00:43:19;;;;;;;;;;;0.70;76.00;;;-0.69;71.61;98282.34;3999283;34;19912;-86
2022/03/21 00:45:48;;;;;;;;;;;0.70;75.90;;;-0.69;71.44;98294.97;3997736;34;20224;-85
2022/03/21 00:48:17;;;;;;;;;;;0.70;75.50;;;-0.70;71.55;98294.09;3998118;34;19912;-85
2022/03/21 00:50:45;;;;;;;;;;;0.70;75.60;;;-0.71;71.39;98287.03;4005458;34;19904;-84
2022/03/21 00:53:15;;;;;;;;;;;0.70;75.30;;;-0.73;70.80;98286.34;4024953;34;20238;-84
2022/03/21 00:55:44;;;;;;;;;;;0.70;75.30;;;-0.71;71.00;98291.56;4047549;34;20206;-85
2022/03/21 00:58:13;;;;;;;;;;;0.70;75.40;;;-0.72;71.30;98288.06;4003360;34;19905;-85
2022/03/21 01:00:42;;;;;;;;;;;0.70;75.40;;;-0.70;71.45;98287.91;4025438;34;20210;-85
2022/03/21 01:03:13;;;;;;;;;;;0.70;75.20;;;-0.72;70.96;98279.13;4025693;34;19904;-85
2022/03/21 01:05:42;;;;;;;;;;;0.70;75.20;;;-0.71;71.31;98281.66;4025109;34;19931;-85
2022/03/21 01:08:12;;;;;;;;;;;0.70;75.10;;;-0.72;70.94;98285.38;4003304;34;20206;-87
2022/03/21 01:10:42;;;;;;;;;;;0.70;75.00;;;-0.71;71.16;98280.81;4053190;34;20080;-84
2022/03/21 01:13:11;;;;;;;;;;;0.70;75.00;;;-0.73;70.94;98275.59;4053783;34;19911;-85
2022/03/21 01:15:39;;;;;;;;;;;0.70;74.90;;;-0.72;70.94;98263.84;4054878;34;20222;-85
2022/03/21 01:18:08;;;;;;;;;;;0.70;75.00;;;-0.76;71.12;98262.44;4031728;34;20227;-85
2022/03/21 01:20:37;;;;;;;;;;;0.70;75.10;;;-0.74;70.96;98275.72;4054843;34;19912;-84
2022/03/21 01:23:05;;;;;;;;;;;0.60;74.90;;;-0.73;71.09;98262.16;4008042;34;20210;-85
2022/03/21 01:25:34;;;;;;;;;;;0.60;74.80;;;-0.74;70.87;98265.84;4008174;34;20334;-85
2022/03/21 01:28:05;;;;;;;;;;;0.60;74.70;;;-0.78;70.93;98257.22;4008130;34;20222;-85
2022/03/21 01:30:33;;;;;;;;;;;0.60;74.80;;;-0.75;70.55;98263.28;4009668;34;19909;-85
2022/03/21 01:33:02;;;;;;;;;;;0.60;74.60;;;-0.75;70.27;98269.50;4007937;34;20260;-85
2022/03/21 01:35:30;;;;;;;;;;;0.60;74.60;;;-0.77;70.24;98261.56;4007762;34;19912;-85
2022/03/21 01:37:59;;;;;;;;;;;0.60;74.50;;;-0.75;70.86;98268.66;4007870;34;20211;-85
2022/03/21 01:40:27;;;;;;;;;;;0.60;74.60;;;-0.79;70.33;98260.91;4007612;34;19904;-84
2022/03/21 01:42:56;;;;;;;;;;;0.60;74.50;;;-0.79;70.59;98262.72;4029270;34;20242;-84
2022/03/21 01:45:28;;;;;;;;;;;0.60;74.30;;;-0.77;70.57;98276.88;4007880;34;19905;-85
2022/03/21 01:47:56;;;;;;;;;;;0.60;74.40;;;-0.78;70.77;98265.28;4006813;34;19905;-85
2022/03/21 01:50:25;;;;;;;;;;;0.60;74.50;;;-0.78;70.97;98264.44;4007852;34;20294;-85
2022/03/21 01:55:43;;;;;;;;;;;0.60;74.40;;;-0.78;70.55;98259.03;3985840;34;19905;-85
2022/03/21 01:55:44;;;;;;;;;;;0.60;74.20;;;-0.79;70.55;98254.66;4007285;34;20214;-85
2022/03/21 01:58:14;;;;;;;;;;;0.60;74.40;;;-0.80;70.31;98258.34;4007343;34;19920;-85
2022/03/21 02:00:45;;;;;;;;;;;0.60;74.40;;;-0.79;70.09;98257.34;4007114;34;19909;-86
2022/03/21 02:03:14;;;;;;;;;;;0.60;74.40;;;-0.81;70.47;98254.81;4029283;34;20228;-85
2022/03/21 02:05:43;;;;;;;;;;;0.60;74.40;;;-0.82;70.38;98258.50;4027784;34;20287;-85
2022/03/21 02:08:11;;;;;;;;;;;0.60;74.40;;;-0.80;70.71;98266.41;4007212;34;19905;-85
2022/03/21 02:10:40;;;;;;;;;;;0.60;74.40;;;-0.82;70.33;98255.81;4006213;34;20559;-85
2022/03/21 02:13:09;;;;;;;;;;;0.60;74.40;;;-0.82;70.58;98253.13;4006536;34;19928;-84
2022/03/21 02:15:37;;;;;;;;;;;0.50;74.50;;;-0.81;70.91;98252.13;4005481;34;20209;-85
2022/03/21 02:18:07;;;;;;;;;;;0.60;74.60;;;-0.81;70.81;98243.19;4023129;34;20204;-85
2022/03/21 02:20:36;;;;;;;;;;;0.60;74.50;;;-0.83;70.36;98237.13;4033184;34;19905;-85
2022/03/21 02:23:08;;;;;;;;;;;0.60;74.40;;;-0.81;70.53;98248.56;4018450;34;20212;-85
2022/03/21 02:25:42;;;;;;;;;;;0.60;74.40;;;-0.84;70.26;98254.28;4007389;34;20236;-85
2022/03/21 02:28:12;;;;;;;;;;;0.60;74.40;;;-0.86;70.49;98240.97;4006707;34;19916;-85
2022/03/21 02:30:42;;;;;;;;;;;0.60;74.50;;;-0.83;70.49;98250.56;4008696;34;20111;-85
2022/03/21 02:33:11;;;;;;;;;;;0.60;74.50;;;-0.86;70.69;98243.66;4027208;34;20127;-86
2022/03/21 02:35:40;;;;;;;;;;;0.60;74.50;;;-0.85;70.81;98247.19;4004660;34;19905;-85
2022/03/21 02:38:13;;;;;;;;;;;0.50;74.90;;;-0.84;70.83;98248.91;4004393;34;20452;-86
2022/03/21 02:40:51;;;;;;;;;;;0.50;74.80;;;-0.86;71.31;98240.97;4005128;35;19909;-86
2022/03/21 02:43:26;;;;;;;;;;;0.50;75.10;;;-0.86;70.63;98240.13;4018502;34;19904;-86
2022/03/21 02:46:06;;;;;;;;;;;0.50;74.70;;;-0.87;70.72;98243.81;4030892;34;19916;-85
2022/03/21 02:48:35;;;;;;;;;;;0.50;74.50;;;-0.86;71.06;98248.19;4030178;34;19905;-86
2022/03/21 02:51:17;;;;;;;;;;;0.50;75.00;;;-0.88;71.05;98251.00;4030658;34;20503;-86
2022/03/21 02:54:03;;;;;;;;;;;0.50;75.10;;;-0.88;70.77;98248.31;4053526;34;20206;-86
2022/03/21 02:56:35;;;;;;;;;;;0.50;74.70;;;-0.87;70.33;98265.31;4031645;34;20239;-86
2022/03/21 02:59:04;;;;;;;;;;;0.50;74.70;;;-0.88;70.46;98258.25;4033119;34;20298;-85
2022/03/21 03:01:33;;;;;;;;;;;0.50;74.60;;;-0.88;70.95;98252.88;4033574;34;19905;-86
2022/03/21 03:04:01;;;;;;;;;;;0.50;74.50;;;-0.88;70.38;98260.94;4033254;34;20220;-85
2022/03/21 03:06:30;;;;;;;;;;;0.50;74.50;;;-0.89;70.86;98248.47;4035112;34;19912;-86
2022/03/21 03:08:58;;;;;;;;;;;0.50;74.90;;;-0.90;71.05;98242.22;4033356;34;20534;-85
2022/03/21 03:11:27;;;;;;;;;;;0.50;75.00;;;-0.91;70.89;98254.00;4032595;34;19905;-85
2022/03/21 03:13:57;;;;;;;;;;;0.50;74.80;;;-0.90;70.36;98247.63;4033096;34;19912;-85
2022/03/21 03:16:25;;;;;;;;;;;0.50;74.60;;;-0.90;70.92;98254.84;4010611;34;19919;-85
2022/03/21 03:18:54;;;;;;;;;;;0.50;74.80;;;-0.93;70.63;98246.06;4026733;34;20265;-85
2022/03/21 03:21:24;;;;;;;;;;;0.50;74.70;;;-0.93;71.32;98256.81;4028864;34;19904;-85
2022/03/21 03:23:53;;;;;;;;;;;0.50;75.10;;;-0.94;70.88;98252.44;4024061;34;19908;-85
2022/03/21 03:26:21;;;;;;;;;;;0.50;75.20;;;-0.93;70.56;98246.06;4024065;34;19944;-85
2022/03/21 03:28:50;;;;;;;;;;;0.50;74.80;;;-0.94;70.81;98244.38;4046291;34;20232;-85
2022/03/21 03:31:20;;;;;;;;;;;0.50;74.80;;;-0.94;71.05;98239.00;4024624;34;19912;-85
2022/03/21 03:33:49;;;;;;;;;;;0.50;75.10;;;-0.96;71.00;98246.34;4027824;34;20243;-85
2022/03/21 03:36:18;;;;;;;;;;;0.40;74.90;;;-0.95;70.88;98253.44;4024846;34;20208;-86
2022/03/21 03:38:46;;;;;;;;;;;0.50;75.20;;;-0.95;70.88;98249.91;4014631;34;20209;-85
2022/03/21 03:41:16;;;;;;;;;;;0.40;74.80;;;-0.96;70.63;98251.75;3976120;34;20207;-84
2022/03/21 03:43:45;;;;;;;;;;;0.40;74.70;;;-0.96;71.08;98257.13;3975368;34;20216;-85
2022/03/21 03:46:13;;;;;;;;;;;0.40;74.60;;;-0.97;71.21;98260.78;3975134;34;20199;-84
2022/03/21 03:48:43;;;;;;;;;;;0.40;74.80;;;-0.98;70.95;98264.50;3988024;28;20261;-82
2022/03/21 03:51:12;;;;;;;;;;;0.40;74.90;;;-0.97;71.04;98255.41;4003481;34;19905;-83
2022/03/21 03:53:41;;;;;;;;;;;0.40;74.90;;;-0.97;70.75;98255.41;3980975;34;20525;-82
2022/03/21 03:56:10;;;;;;;;;;;0.40;74.60;;;-0.98;70.64;98253.75;3982809;34;20223;-83
2022/03/21 03:58:38;;;;;;;;;;;0.40;74.80;;;-0.98;71.01;98252.88;4005545;34;20223;-82
2022/03/21 04:01:07;;;;;;;;;;;0.40;74.70;;;-0.99;70.49;98252.06;4039829;34;20210;-83
2022/03/21 04:03:47;;;;;;;;;;;0.40;74.70;;;-1.00;71.10;98255.72;4060721;34;20213;-83
2022/03/21 04:06:18;;;;;;;;;;;0.40;74.90;;;-0.98;70.76;98266.31;4002804;34;19909;-83
2022/03/21 04:08:48;;;;;;;;;;;0.40;74.90;;;-0.99;71.32;98261.94;4002736;34;20264;-82
2022/03/21 04:11:17;;;;;;;;;;;0.40;74.90;;;-1.00;71.18;98260.25;3985646;34;20242;-83
2022/03/21 04:13:46;;;;;;;;;;;0.40;74.80;;;-1.01;70.76;98254.03;4006032;34;20223;-82
2022/03/21 04:16:15;;;;;;;;;;;0.40;74.80;;;-1.01;71.41;98259.41;3982136;34;19912;-83
2022/03/21 04:18:43;;;;;;;;;;;0.40;75.00;;;-1.01;70.82;98256.72;3979281;34;20270;-83
2022/03/21 04:21:12;;;;;;;;;;;0.40;74.70;;;-1.01;71.06;98254.03;4024026;34;20617;-83
2022/03/21 04:23:42;;;;;;;;;;;0.40;74.90;;;-1.02;70.78;98252.34;3995749;34;19904;-83
2022/03/21 04:26:12;;;;;;;;;;;0.40;74.80;;;-1.02;71.20;98262.22;3984309;34;19916;-84
2022/03/21 04:28:40;;;;;;;;;;;0.30;75.00;;;-1.01;70.93;98254.03;3984021;34;20225;-83
2022/03/21 04:31:09;;;;;;;;;;;0.40;75.00;;;-1.02;71.52;98254.16;4006219;34;19912;-83
2022/03/21 04:33:37;;;;;;;;;;;0.40;74.90;;;-1.03;71.09;98260.56;3984749;34;19905;-83
2022/03/21 04:36:06;;;;;;;;;;;0.40;75.00;;;-1.02;71.12;98252.34;4006045;34;19905;-83
2022/03/21 04:38:35;;;;;;;;;;;0.40;74.90;;;-1.02;71.14;98255.03;3984293;34;20217;-83
2022/03/21 04:41:06;;;;;;;;;;;0.40;75.00;;;-0.94;71.39;98260.50;3984597;34;19904;-83
2022/03/21 04:43:34;;;;;;;;;;;0.50;75.00;;;-0.86;70.56;98253.56;4006316;34;20214;-83
2022/03/21 04:46:03;;;;;;;;;;;0.60;74.50;;;-0.69;70.32;98258.16;4005737;34;19905;-83
2022/03/21 04:48:31;;;;;;;;;;;0.80;74.00;;;-0.51;69.79;98257.38;4006662;34;20212;-83
2022/03/21 04:51:00;;;;;;;;;;;1.00;73.20;;;-0.29;69.33;98257.97;4005807;34;19905;-83
2022/03/21 04:53:28;;;;;;;;;;;1.20;72.40;;;-0.04;67.79;98251.03;3984771;34;19905;-83
2022/03/21 04:55:57;;;;;;;;;;;1.40;71.40;;;0.20;67.21;98249.56;4006789;34;19916;-83
2022/03/21 04:58:27;;;;;;;;;;;1.60;70.30;;;0.38;65.94;98252.25;4007293;34;19912;-83
2022/03/21 05:00:56;;;;;;;;;;;1.70;69.20;;;0.50;65.67;98258.25;3986642;34;19905;-83
2022/03/21 05:03:25;;;;;;;;;;;1.80;68.80;;;0.51;65.43;98260.78;4007928;34;20212;-84
2022/03/21 05:05:53;;;;;;;;;;;1.90;68.90;;;0.54;65.28;98265.00;3986097;34;19905;-83
2022/03/21 05:08:22;;;;;;;;;;;1.90;68.60;;;0.54;65.34;98262.31;3984965;34;20223;-83
2022/03/21 05:10:51;;;;;;;;;;;1.90;68.80;;;0.58;65.44;98261.00;4007058;34;20298;-83
2022/03/21 05:13:19;;;;;;;;;;;1.90;68.70;;;0.60;64.95;98265.25;3985970;34;19905;-83
2022/03/21 05:15:49;;;;;;;;;;;1.90;68.40;;;0.63;64.75;98261.41;4006991;34;20240;-83
2022/03/21 05:18:18;;;;;;;;;;;2.00;68.10;;;0.66;64.70;98262.94;3985306;34;20269;-82
2022/03/21 05:20:46;;;;;;;;;;;2.00;67.90;;;0.70;64.63;98264.31;4006904;34;19905;-83
2022/03/21 05:31:34;;;;;;;;;;;2.40;67.50;;;1.02;64.16;98269.09;4021574;34;19911;-81
2022/03/21 05:36:48;;;;;;;;;;;3.00;65.90;;;1.45;63.14;98266.47;4036049;34;19915;-82
2022/03/21 05:39:17;;;;;;;;;;;3.30;64.70;;;1.72;62.45;98269.97;4035601;34;20589;-82
2022/03/21 05:41:46;;;;;;;;;;;3.80;63.30;;;2.03;62.25;98268.56;4037983;34;19904;-82
2022/03/21 05:44:14;;;;;;;;;;;4.20;62.00;;;2.37;61.53;98267.59;4031616;34;20099;-82
2022/03/21 05:46:44;;;;;;;;;;;4.60;61.00;;;2.70;60.10;98268.47;4049681;34;20317;-82
2022/03/21 05:49:13;;;;;;;;;;;5.00;59.80;;;2.99;59.94;98267.09;4059889;34;20122;-82
2022/03/21 05:51:41;;;;;;;;;;;5.40;58.60;;;3.24;58.99;98269.75;4037990;34;20207;-82
2022/03/21 05:54:12;;;;;;;;;;;5.70;57.60;;;3.47;58.59;98267.19;4059106;34;20535;-82
2022/03/21 05:56:42;;;;;;;;;;;6.00;56.60;;;3.65;57.73;98266.09;4057786;34;20505;-82
2022/03/21 06:01:57;;;;;;;;;;;6.40;55.00;;;3.81;56.77;98281.41;4032882;34;20612;-82
2022/03/21 06:04:26;;;;;;;;;;;6.40;54.50;;;3.83;56.30;98276.69;4053493;34;20248;-83
2022/03/21 06:06:55;;;;;;;;;;;6.40;54.30;;;3.78;56.86;98276.38;4029037;34;20428;-82
2022/03/21 06:09:23;;;;;;;;;;;6.40;54.20;;;3.67;57.01;98281.16;4046563;34;20215;-82
2022/03/21 06:11:52;;;;;;;;;;;6.30;54.30;;;3.55;57.18;98279.81;4040948;34;19914;-83
2022/03/21 06:14:20;;;;;;;;;;;6.10;54.60;;;3.33;57.40;98273.31;4051008;34;20214;-82
2022/03/21 06:16:49;;;;;;;;;;;5.80;55.00;;;3.06;57.67;98273.50;4028201;34;19937;-83
2022/03/21 06:19:19;;;;;;;;;;;5.30;55.90;;;2.78;59.00;98269.47;4028235;34;20209;-83
2022/03/21 06:21:47;;;;;;;;;;;4.90;57.30;;;2.51;59.65;98276.91;4028198;34;20218;-82
2022/03/21 06:24:18;;;;;;;;;;;4.50;58.80;;;2.23;60.79;98286.16;4027923;34;19912;-81
2022/03/21 06:26:47;;;;;;;;;;;4.10;60.30;;;1.98;61.59;98280.69;4026992;34;19904;-81
2022/03/21 06:29:15;;;;;;;;;;;3.70;61.80;;;1.75;62.65;98282.28;4049561;34;20463;-81
2022/03/21 06:31:44;;;;;;;;;;;3.50;64.10;;;1.57;63.16;98277.00;4027734;34;19904;-81
2022/03/21 06:34:13;;;;;;;;;;;3.20;64.30;;;1.42;64.10;98277.59;4024775;34;20108;-81
2022/03/21 06:36:43;;;;;;;;;;;3.00;65.50;;;1.29;64.58;98287.97;4019629;34;20279;-81
2022/03/21 06:39:12;;;;;;;;;;;2.90;66.50;;;1.18;64.82;98289.94;4002458;34;19912;-81
2022/03/21 06:41:44;;;;;;;;;;;2.70;67.20;;;1.10;65.18;98292.56;4024152;34;20156;-81
2022/03/21 06:44:14;;;;;;;;;;;2.60;67.70;;;1.05;65.99;98301.13;4024767;34;20380;-81
2022/03/21 06:46:42;;;;;;;;;;;2.50;68.30;;;1.02;65.95;98298.78;4023026;34;20244;-81
2022/03/21 06:49:11;;;;;;;;;;;2.40;68.80;;;0.98;66.10;98301.91;4008612;34;20131;-81
2022/03/21 06:51:39;;;;;;;;;;;2.40;69.20;;;0.97;66.46;98303.78;4008560;34;20185;-81
2022/03/21 06:54:10;;;;;;;;;;;2.40;69.60;;;0.95;66.53;98300.41;4030210;34;19905;-81
2022/03/21 06:56:38;;;;;;;;;;;2.30;69.90;;;0.95;66.66;98299.56;4002470;34;20501;-82
2022/03/21 06:59:07;;;;;;;;;;;2.30;70.10;;;0.94;66.75;98293.31;3999220;34;20223;-82
2022/03/21 07:01:36;;;;;;;;;;;2.30;70.20;;;0.95;66.47;98302.25;3998964;34;20218;-82
2022/03/21 07:04:05;;;;;;;;;;;2.30;70.40;;;0.97;66.84;98294.88;4003280;35;20592;-82
2022/03/21 07:06:33;;;;;;;;;;;2.30;70.50;;;0.96;67.07;98293.16;3999579;34;19912;-82
2022/03/21 07:09:02;;;;;;;;;;;2.30;70.60;;;0.97;67.22;98284.91;3979732;34;20251;-82
2022/03/21 07:11:35;;;;;;;;;;;2.30;70.70;;;1.00;67.10;98289.13;4001209;34;20460;-82
2022/03/21 07:14:03;;;;;;;;;;;2.30;70.80;;;1.01;66.81;98288.13;3999746;34;20668;-82
2022/03/21 07:16:32;;;;;;;;;;;2.30;70.80;;;1.02;66.53;98289.81;3998901;34;20254;-82
2022/03/21 07:19:00;;;;;;;;;;;2.30;70.90;;;1.05;66.96;98292.22;4021711;34;20534;-82
2022/03/21 07:21:29;;;;;;;;;;;2.30;70.90;;;1.07;66.99;98287.50;3998903;34;19905;-82
2022/03/21 07:23:57;;;;;;;;;;;2.30;70.90;;;1.10;67.23;98287.16;3978659;34;20589;-82
2022/03/21 07:26:26;;;;;;;;;;;2.30;71.10;;;1.12;66.99;98292.44;3998721;34;19913;-83
2022/03/21 07:28:55;;;;;;;;;;;2.40;71.00;;;1.13;67.06;98286.03;3999240;34;20223;-83
2022/03/21 07:31:24;;;;;;;;;;;2.40;71.00;;;1.13;67.13;98286.84;4021474;34;20249;-83
2022/03/21 07:33:52;;;;;;;;;;;2.40;70.90;;;1.16;67.19;98297.34;4043209;34;19911;-83
2022/03/21 07:36:21;;;;;;;;;;;2.40;70.90;;;1.18;66.83;98295.34;4050023;34;20200;-83
2022/03/21 07:38:50;;;;;;;;;;;2.40;70.90;;;1.18;67.25;98289.94;4028760;34;19904;-83
2022/03/21 07:41:18;;;;;;;;;;;2.40;70.80;;;1.20;66.77;98296.03;4029106;34;20231;-82
2022/03/21 07:43:47;;;;;;;;;;;2.40;70.80;;;1.22;66.72;98288.63;4029038;34;19904;-83
2022/03/21 07:49:03;;;;;;;;;;;2.40;70.60;;;1.26;66.65;98285.59;4029723;34;20119;-82
2022/03/21 07:51:31;;;;;;;;;;;2.40;70.60;;;1.29;66.63;98285.28;4052768;34;20215;-82
2022/03/21 07:54:00;;;;;;;;;;;2.50;70.60;;;1.29;66.70;98279.88;4030919;34;19915;-82
2022/03/21 07:56:28;;;;;;;;;;;2.50;70.60;;;1.30;66.56;98273.47;4051752;34;20496;-82
2022/03/21 07:58:59;;;;;;;;;;;2.50;70.50;;;1.33;66.61;98281.25;4052552;34;19904;-82
2022/03/21 08:01:30;;;;;;;;;;;2.50;70.70;;;1.34;66.41;98282.97;4030468;34;20096;-82
2022/03/21 08:04:00;;;;;;;;;;;2.50;70.50;;;1.35;66.14;98285.47;4053334;34;19915;-82
2022/03/21 08:06:29;;;;;;;;;;;2.50;71.30;;;1.35;66.17;98282.78;4052757;34;20430;-82
2022/03/21 08:08:58;;;;;;;;;;;2.50;70.30;;;1.37;66.08;98288.00;4054242;34;20150;-82
2022/03/21 08:11:26;;;;;;;;;;;2.50;70.30;;;1.37;66.17;98279.91;4035700;34;20204;-82
2022/03/21 08:13:55;;;;;;;;;;;2.60;70.30;;;1.35;66.25;98271.16;4038987;34;20116;-82
2022/03/21 08:16:23;;;;;;;;;;;2.60;70.20;;;1.34;65.98;98277.56;4038626;34;19911;-82
2022/03/21 08:18:53;;;;;;;;;;;2.60;70.30;;;1.35;66.31;98276.56;4039947;34;20092;-82
2022/03/21 08:21:22;;;;;;;;;;;2.60;70.20;;;1.32;66.39;98277.69;4062689;34;19904;-82
2022/03/21 08:23:51;;;;;;;;;;;2.60;70.40;;;1.32;66.42;98274.16;4043826;34;20548;-82
2022/03/21 08:26:19;;;;;;;;;;;2.50;70.40;;;1.33;66.46;98275.88;4063368;34;20208;-82
2022/03/21 08:28:48;;;;;;;;;;;2.50;70.40;;;1.30;66.74;98271.63;4052493;34;19912;-82
2022/03/21 08:31:16;;;;;;;;;;;2.50;71.30;;;1.30;66.70;98260.00;4015779;34;20216;-82
2022/03/21 08:33:45;;;;;;;;;;;2.50;70.50;;;1.29;66.62;98274.47;4040031;34;19922;-82
2022/03/21 08:36:15;;;;;;;;;;;2.50;70.50;;;1.26;66.46;98267.56;4033171;34;20217;-82
2022/03/21 08:38:43;;;;;;;;;;;2.50;70.70;;;1.25;66.70;98257.78;4008334;34;20524;-81
2022/03/21 08:41:12;;;;;;;;;;;2.50;70.60;;;1.23;66.80;98266.00;4031467;34;20250;-82
2022/03/21 08:43:41;;;;;;;;;;;2.50;70.70;;;1.19;67.02;98258.41;4009884;34;20097;-82
2022/03/21 08:46:09;;;;;;;;;;;2.40;70.70;;;1.19;67.08;98253.88;4009616;34;20200;-81
2022/03/21 08:51:25;;;;;;;;;;;2.50;70.90;;;1.15;67.14;98252.47;4005627;34;19911;-82
2022/03/21 08:53:54;;;;;;;;;;;2.50;71.00;;;1.13;67.01;98243.69;4025319;34;20227;-82
2022/03/21 08:56:22;;;;;;;;;;;2.40;70.90;;;1.12;67.28;98251.97;4025142;34;20208;-81
2022/03/21 08:58:51;;;;;;;;;;;2.40;71.10;;;1.10;67.65;98252.09;4025860;34;20018;-81
2022/03/21 09:01:19;;;;;;;;;;;2.40;71.30;;;1.08;67.47;98251.44;4003825;34;19912;-82
2022/03/21 09:03:48;;;;;;;;;;;2.40;71.30;;;1.06;67.61;98256.16;4006737;34;20249;-82
2022/03/21 09:06:17;;;;;;;;;;;2.40;71.40;;;1.05;67.86;98246.34;4025905;34;19904;-81
2022/03/21 09:08:48;;;;;;;;;;;2.30;71.60;;;1.04;67.84;98248.19;4024803;34;19911;-82
2022/03/21 09:11:17;;;;;;;;;;;2.30;71.80;;;1.03;68.55;98245.66;4047330;34;20207;-82
2022/03/21 09:13:46;;;;;;;;;;;2.30;72.00;;;1.02;68.14;98252.94;4049240;34;20107;-82
2022/03/21 09:16:14;;;;;;;;;;;2.40;72.00;;;1.02;68.42;98238.56;4025770;34;20214;-81
2022/03/21 09:18:43;;;;;;;;;;;2.30;72.10;;;1.00;68.19;98237.88;4043714;34;20516;-82
2022/03/21 09:21:12;;;;;;;;;;;2.30;72.10;;;0.99;68.56;98237.06;3998552;34;20116;-81
2022/03/21 09:23:41;;;;;;;;;;;2.30;72.10;;;0.98;68.43;98245.28;4022244;34;20248;-81
2022/03/21 09:26:11;;;;;;;;;;;2.30;72.20;;;0.97;68.40;98243.63;4000846;34;19912;-82
2022/03/21 09:28:40;;;;;;;;;;;2.30;72.20;;;0.94;68.31;98233.97;4022222;34;19951;-82
2022/03/21 09:31:08;;;;;;;;;;;2.30;72.20;;;0.91;67.85;98218.97;4022191;34;19912;-82
2022/03/21 09:33:39;;;;;;;;;;;2.30;72.00;;;0.91;68.33;98234.28;4001126;34;20526;-82
2022/03/21 09:36:09;;;;;;;;;;;2.20;71.90;;;0.91;68.72;98235.16;4003005;34;23222;-82
2022/03/21 09:38:38;;;;;;;;;;;2.20;72.20;;;0.90;68.73;98232.63;4002314;34;20227;-81
2022/03/21 09:41:12;;;;;;;;;;;2.20;72.30;;;0.88;68.39;98232.75;4008019;34;19926;-81
2022/03/21 09:43:42;;;;;;;;;;;2.20;72.10;;;0.87;68.59;98241.03;4007985;34;19910;-82
2022/03/21 09:46:11;;;;;;;;;;;2.20;72.00;;;0.85;68.44;98229.53;4004324;34;19986;-82
2022/03/21 09:48:39;;;;;;;;;;;2.20;72.00;;;0.84;68.51;98227.84;4023638;34;20213;-81
2022/03/21 09:51:08;;;;;;;;;;;2.20;72.00;;;0.82;68.94;98230.72;4024253;34;19905;-82
2022/03/21 09:53:37;;;;;;;;;;;2.20;72.20;;;0.81;68.52;98223.63;4002294;34;20211;-82
2022/03/21 09:56:06;;;;;;;;;;;2.20;72.20;;;0.81;68.49;98222.75;4002546;34;19905;-81
2022/03/21 09:58:34;;;;;;;;;;;2.20;72.10;;;0.79;68.68;98224.78;4026356;34;20200;-82
2022/03/21 10:01:05;;;;;;;;;;;2.10;72.10;;;0.77;68.47;98211.47;4008782;34;19904;-82
2022/03/21 10:03:35;;;;;;;;;;;2.10;72.10;;;0.75;68.28;98210.75;4008470;34;20204;-81
2022/03/21 10:06:04;;;;;;;;;;;2.10;72.20;;;0.75;68.76;98210.75;4002834;34;19923;-82
2022/03/21 10:08:33;;;;;;;;;;;2.10;72.20;;;0.74;68.94;98211.75;4001412;34;19911;-82
2022/03/21 10:11:02;;;;;;;;;;;2.10;72.40;;;0.74;68.91;98206.38;4002595;34;20209;-82
2022/03/21 10:13:33;;;;;;;;;;;2.10;72.60;;;0.73;68.94;98194.75;4024268;34;19912;-82
2022/03/21 10:16:11;;;;;;;;;;;2.10;72.70;;;0.72;68.95;98205.69;4023458;34;20208;-82
2022/03/21 10:18:57;;;;;;;;;;;2.10;72.60;;;0.71;69.25;98195.94;4000864;34;20223;-82
2022/03/21 10:21:27;;;;;;;;;;;2.10;72.60;;;0.71;68.85;98195.94;4022470;34;19905;-82
2022/03/21 10:24:00;;;;;;;;;;;2.10;72.70;;;0.69;68.92;98187.16;4002389;34;19983;-82
2022/03/21 10:26:30;;;;;;;;;;;2.10;72.80;;;0.69;69.33;98184.47;4024831;34;20217;-82
2022/03/21 10:28:59;;;;;;;;;;;2.00;72.70;;;0.66;69.48;98182.91;4002440;34;20211;-82
2022/03/21 10:31:38;;;;;;;;;;;2.00;72.70;;;0.66;68.84;98179.38;4002495;34;20091;-82
2022/03/21 10:34:07;;;;;;;;;;;2.10;72.70;;;0.65;68.88;98191.16;4003286;34;20219;-81
2022/03/21 10:36:36;;;;;;;;;;;2.00;72.70;;;0.64;69.36;98184.06;4005778;34;20390;-82
2022/03/21 10:39:09;;;;;;;;;;;2.00;73.00;;;0.63;69.64;98177.00;4009154;34;20206;-82
2022/03/21 10:41:39;;;;;;;;;;;2.00;73.20;;;0.62;69.66;98170.75;4032281;34;20115;-82
2022/03/21 10:44:08;;;;;;;;;;;2.00;73.20;;;0.63;69.70;98168.91;4032675;34;19905;-82
2022/03/21 10:46:38;;;;;;;;;;;2.00;73.20;;;0.60;69.75;98170.91;4033222;34;20236;-82
2022/03/21 10:49:09;;;;;;;;;;;2.00;73.20;;;0.60;69.24;98162.81;4011731;34;20256;-81
2022/03/21 10:51:48;;;;;;;;;;;2.00;73.10;;;0.60;69.35;98160.13;4033624;34;19920;-82
2022/03/21 10:54:36;;;;;;;;;;;2.00;73.10;;;0.59;69.46;98154.91;4012166;34;20204;-82
2022/03/21 10:57:05;;;;;;;;;;;2.00;73.20;;;0.58;69.43;98162.13;4035612;34;20626;-82
2022/03/21 10:59:34;;;;;;;;;;;2.00;73.00;;;0.56;69.23;98156.06;4012126;34;20216;-82
2022/03/21 11:02:14;;;;;;;;;;;2.00;73.00;;;0.56;69.21;98139.91;4011287;34;20203;-82
2022/03/21 11:04:44;;;;;;;;;;;1.90;73.20;;;0.54;69.39;98136.53;4011677;34;20207;-82
2022/03/21 11:07:13;;;;;;;;;;;1.90;73.30;;;0.54;69.35;98141.91;4032320;34;20112;-82
2022/03/21 11:09:42;;;;;;;;;;;2.00;73.30;;;0.54;70.21;98146.44;4033134;34;19904;-82
2022/03/21 11:12:11;;;;;;;;;;;1.90;73.60;;;0.54;70.17;98131.13;4010798;34;19904;-82
2022/03/21 11:14:40;;;;;;;;;;;2.00;73.60;;;0.52;69.67;98133.13;4032877;34;19904;-82
2022/03/21 11:17:09;;;;;;;;;;;1.90;73.60;;;0.52;70.23;98126.88;4032311;34;19905;-82
2022/03/21 11:19:39;;;;;;;;;;;1.90;73.60;;;0.50;69.79;98118.13;4032682;34;20210;-82
2022/03/21 11:22:07;;;;;;;;;;;1.90;73.50;;;0.50;69.65;98113.56;4031469;34;20599;-82
2022/03/21 11:24:37;;;;;;;;;;;1.90;73.60;;;0.49;69.46;98109.19;4010385;34;19909;-82
2022/03/21 11:27:20;;;;;;;;;;;1.90;73.50;;;0.49;69.80;98108.34;4008990;34;19916;-82
2022/03/21 11:29:59;;;;;;;;;;;1.90;73.60;;;0.48;69.71;98103.97;4030770;34;20594;-82
2022/03/21 11:32:37;;;;;;;;;;;1.90;73.60;;;0.46;70.06;98096.03;4008457;34;19913;-81
2022/03/21 11:35:12;;;;;;;;;;;1.90;73.70;;;0.46;69.86;98101.41;4008210;34;20606;-82
2022/03/21 11:37:40;;;;;;;;;;;1.80;73.60;;;0.45;70.15;98099.75;4008421;34;19904;-82
2022/03/21 11:40:29;;;;;;;;;;;1.80;73.70;;;0.44;70.07;98093.50;4008128;34;20237;-82
2022/03/21 11:43:25;;;;;;;;;;;1.80;73.80;;;0.45;70.12;98097.06;4010281;34;19905;-81
2022/03/21 11:45:55;;;;;;;;;;;1.80;73.70;;;0.42;70.36;98095.50;4010312;34;20144;-82
2022/03/21 11:48:36;;;;;;;;;;;1.80;73.70;;;0.42;70.16;98087.44;4009621;34;20223;-82
2022/03/21 11:51:29;;;;;;;;;;;1.80;73.90;;;0.42;70.11;98078.50;4010044;34;20119;-82
2022/03/21 11:53:58;;;;;;;;;;;1.80;73.80;;;0.41;70.12;98082.22;4036825;34;20240;-82
2022/03/21 11:57:11;;;;;;;;;;;1.80;73.80;;;0.39;70.67;98071.56;4035951;34;19935;-82
2022/03/21 11:59:57;;;;;;;;;;;1.80;73.90;;;0.38;70.28;98069.91;4038745;34;19938;-82
2022/03/21 12:03:01;;;;;;;;;;;1.80;73.90;;;0.39;70.17;98068.03;4061389;34;20207;-82